Time;durP1;ratioP1;P1;durP2;ratioP2;P2;SDS_P1;SDS_P2;PMS_P1;PMS_P2;Temp;Humidity;BMP_temperature;BMP_pressure;BME280_temperature;BME280_humidity;BME280_pressure;Samples;Min_cycle;Max_cycle;Signal;HPM_P1;HPM_P2
2024/01/18 00:01:10;;;;;;;3.38;1.95;;;;;;;;;;4996068;28;20037;-84
2024/01/18 00:03:39;;;;;;;2.58;1.77;;;;;;;;;;4980075;28;20147;-84
2024/01/18 00:06:05;;;;;;;4.18;2.22;;;;;;;;;;5013746;28;20042;-86
2024/01/18 00:08:31;;;;;;;3.33;1.80;;;;;;;;;;5013481;28;20029;-85
2024/01/18 00:10:56;;;;;;;3.47;2.00;;;;;;;;;;5014080;28;20721;-84
2024/01/18 00:13:21;;;;;;;2.88;1.70;;;;;;;;;;4984829;28;20124;-85
2024/01/18 00:15:47;;;;;;;3.35;1.73;;;;;;;;;;5014999;28;20041;-84
2024/01/18 00:18:12;;;;;;;3.00;2.03;;;;;;;;;;5016925;28;20034;-85
2024/01/18 00:20:38;;;;;;;3.33;1.88;;;;;;;;;;5000057;28;20474;-84
2024/01/18 00:23:03;;;;;;;3.10;1.80;;;;;;;;;;5012209;28;20038;-86
2024/01/18 00:25:29;;;;;;;4.05;2.40;;;;;;;;;;5009514;28;20050;-86
2024/01/18 00:27:54;;;;;;;4.78;1.90;;;;;;;;;;4993753;28;20029;-85
2024/01/18 00:30:20;;;;;;;2.88;1.90;;;;;;;;;;5011353;28;20042;-84
2024/01/18 00:32:45;;;;;;;3.30;1.90;;;;;;;;;;4992742;28;20034;-85
2024/01/18 00:35:11;;;;;;;3.03;2.00;;;;;;;;;;5007905;28;20033;-85
2024/01/18 00:37:36;;;;;;;4.20;2.00;;;;;;;;;;5011400;28;20041;-84
2024/01/18 00:40:02;;;;;;;3.65;2.08;;;;;;;;;;5013814;28;20038;-84
2024/01/18 00:42:27;;;;;;;3.97;2.10;;;;;;;;;;5009815;28;20062;-84
2024/01/18 00:44:53;;;;;;;3.60;2.20;;;;;;;;;;5010259;28;20428;-83
2024/01/18 00:47:18;;;;;;;2.60;1.90;;;;;;;;;;5009337;28;20035;-84
2024/01/18 00:49:44;;;;;;;4.47;2.30;;;;;;;;;;5008532;28;20046;-83
2024/01/18 00:52:09;;;;;;;3.97;2.17;;;;;;;;;;5010216;28;20061;-84
2024/01/18 00:54:35;;;;;;;3.75;2.08;;;;;;;;;;5008308;28;20061;-87
2024/01/18 00:57:00;;;;;;;3.55;1.98;;;;;;;;;;5011111;28;20038;-85
2024/01/18 00:59:28;;;;;;;3.67;1.90;;;;;;;;;;5011570;28;20038;-82
2024/01/18 01:01:53;;;;;;;3.28;2.13;;;;;;;;;;5015973;28;20038;-85
2024/01/18 01:04:19;;;;;;;3.72;2.10;;;;;;;;;;5013476;28;20037;-84
2024/01/18 01:06:44;;;;;;;3.60;1.92;;;;;;;;;;4993924;28;20041;-84
2024/01/18 01:09:11;;;;;;;2.55;1.67;;;;;;;;;;5010305;28;20045;-84
2024/01/18 01:11:36;;;;;;;2.72;1.92;;;;;;;;;;5011610;28;20046;-86
2024/01/18 01:14:02;;;;;;;3.72;2.00;;;;;;;;;;5009929;28;20045;-86
2024/01/18 01:16:28;;;;;;;2.63;1.83;;;;;;;;;;5009708;28;20049;-84
2024/01/18 01:18:53;;;;;;;6.45;2.30;;;;;;;;;;5011209;28;20484;-84
2024/01/18 01:21:19;;;;;;;4.32;1.98;;;;;;;;;;4991022;28;20040;-84
2024/01/18 01:23:48;;;;;;;3.10;1.98;;;;;;;;;;4994884;28;20589;-86
2024/01/18 01:26:15;;;;;;;4.03;2.10;;;;;;;;;;4995717;28;20029;-85
2024/01/18 01:28:42;;;;;;;3.03;2.15;;;;;;;;;;5008156;28;20052;-84
2024/01/18 01:31:07;;;;;;;4.22;2.30;;;;;;;;;;5011283;28;20049;-84
2024/01/18 01:33:33;;;;;;;3.38;2.03;;;;;;;;;;5007907;28;20046;-85
2024/01/18 01:35:58;;;;;;;3.15;2.08;;;;;;;;;;4989458;28;20060;-85
2024/01/18 01:38:24;;;;;;;4.60;2.20;;;;;;;;;;5007882;28;20042;-85
2024/01/18 01:40:49;;;;;;;3.55;2.10;;;;;;;;;;5007506;28;20037;-84
2024/01/18 01:43:16;;;;;;;3.38;2.10;;;;;;;;;;5007608;28;20040;-82
2024/01/18 01:45:42;;;;;;;3.45;2.17;;;;;;;;;;5008396;28;20045;-83
2024/01/18 01:48:08;;;;;;;4.20;1.90;;;;;;;;;;5006825;28;20109;-84
2024/01/18 01:50:35;;;;;;;3.90;2.10;;;;;;;;;;4987166;28;20026;-86
2024/01/18 01:53:01;;;;;;;3.60;2.30;;;;;;;;;;5007179;28;20037;-84
2024/01/18 01:55:26;;;;;;;3.28;2.00;;;;;;;;;;4971559;28;20407;-84
2024/01/18 01:57:52;;;;;;;4.47;2.50;;;;;;;;;;4987252;28;20022;-85
2024/01/18 02:00:18;;;;;;;3.85;2.22;;;;;;;;;;5005873;28;20491;-84
2024/01/18 02:02:44;;;;;;;5.03;2.30;;;;;;;;;;4988948;28;20042;-84
2024/01/18 02:05:10;;;;;;;3.42;2.20;;;;;;;;;;5007746;28;20034;-86
2024/01/18 02:07:36;;;;;;;4.78;2.08;;;;;;;;;;4988242;28;20049;-85
2024/01/18 02:10:03;;;;;;;4.55;2.13;;;;;;;;;;5007620;28;20116;-85
2024/01/18 02:12:30;;;;;;;5.28;2.17;;;;;;;;;;4992741;28;20034;-84
2024/01/18 02:14:57;;;;;;;4.18;2.40;;;;;;;;;;4992291;28;20033;-84
2024/01/18 02:17:22;;;;;;;4.22;2.50;;;;;;;;;;5006869;28;20045;-85
2024/01/18 02:19:48;;;;;;;7.28;3.00;;;;;;;;;;4989113;28;20038;-84
2024/01/18 02:22:19;;;;;;;4.05;2.55;;;;;;;;;;4992591;28;20107;-84
2024/01/18 02:24:50;;;;;;;4.55;2.42;;;;;;;;;;4988022;28;20038;-84
2024/01/18 02:27:15;;;;;;;3.53;2.17;;;;;;;;;;4988452;28;20083;-84
2024/01/18 02:29:41;;;;;;;3.85;2.10;;;;;;;;;;4992121;28;20026;-83
2024/01/18 02:32:06;;;;;;;4.07;2.33;;;;;;;;;;5006032;28;20519;-84
2024/01/18 02:34:32;;;;;;;3.50;2.20;;;;;;;;;;4987438;28;20026;-84
2024/01/18 02:36:58;;;;;;;3.13;2.20;;;;;;;;;;5007154;28;20068;-85
2024/01/18 02:39:24;;;;;;;3.15;2.03;;;;;;;;;;5010586;28;20038;-85
2024/01/18 02:41:49;;;;;;;3.40;1.80;;;;;;;;;;5008076;28;20064;-84
2024/01/18 02:44:16;;;;;;;2.95;1.83;;;;;;;;;;5003716;28;20057;-84
2024/01/18 02:46:42;;;;;;;3.53;2.10;;;;;;;;;;4989189;28;20046;-84
2024/01/18 02:49:07;;;;;;;3.92;2.20;;;;;;;;;;5008941;28;20076;-84
2024/01/18 02:51:33;;;;;;;3.40;2.10;;;;;;;;;;5005502;28;20146;-85
2024/01/18 02:53:59;;;;;;;2.80;1.92;;;;;;;;;;5007268;28;20555;-83
2024/01/18 02:56:24;;;;;;;3.40;2.00;;;;;;;;;;5004080;28;20061;-84
2024/01/18 02:58:50;;;;;;;4.18;2.30;;;;;;;;;;5004472;28;20442;-83
2024/01/18 03:01:15;;;;;;;3.53;2.10;;;;;;;;;;4991827;28;20120;-85
2024/01/18 03:03:41;;;;;;;3.72;2.55;;;;;;;;;;4991361;28;20045;-85
2024/01/18 03:06:06;;;;;;;3.75;2.13;;;;;;;;;;5007626;28;20045;-83
2024/01/18 03:08:32;;;;;;;3.78;2.20;;;;;;;;;;4986345;28;20030;-84
2024/01/18 03:10:58;;;;;;;3.78;2.15;;;;;;;;;;5009004;28;20046;-84
2024/01/18 03:13:23;;;;;;;4.78;2.38;;;;;;;;;;5008109;28;20121;-83
2024/01/18 03:15:49;;;;;;;3.13;2.15;;;;;;;;;;5009182;28;20038;-86
2024/01/18 03:18:14;;;;;;;2.78;1.92;;;;;;;;;;5009695;28;20042;-83
2024/01/18 03:20:40;;;;;;;2.47;1.67;;;;;;;;;;5009105;28;20137;-85
2024/01/18 03:23:05;;;;;;;3.67;1.83;;;;;;;;;;5013473;28;20040;-85
2024/01/18 03:25:31;;;;;;;3.13;2.15;;;;;;;;;;5010667;28;20030;-83
2024/01/18 03:27:56;;;;;;;4.60;1.92;;;;;;;;;;5009422;28;20472;-84
2024/01/18 03:30:22;;;;;;;4.07;2.35;;;;;;;;;;5009547;28;20033;-84
2024/01/18 03:32:47;;;;;;;3.03;2.13;;;;;;;;;;4989951;28;20073;-83
2024/01/18 03:35:13;;;;;;;3.47;2.35;;;;;;;;;;4989951;28;20037;-84
2024/01/18 03:37:38;;;;;;;3.50;2.08;;;;;;;;;;5008658;28;20030;-83
2024/01/18 03:40:08;;;;;;;2.92;2.15;;;;;;;;;;5011982;28;20034;-84
2024/01/18 03:42:34;;;;;;;3.50;2.40;;;;;;;;;;4997032;28;20029;-84
2024/01/18 03:44:59;;;;;;;4.80;2.35;;;;;;;;;;5015350;28;20033;-86
2024/01/18 03:47:25;;;;;;;4.18;2.63;;;;;;;;;;4992786;28;20034;-85
2024/01/18 03:49:51;;;;;;;3.53;2.53;;;;;;;;;;5009238;28;20049;-86
2024/01/18 03:52:16;;;;;;;3.25;2.22;;;;;;;;;;4992342;28;20408;-85
2024/01/18 03:54:42;;;;;;;3.10;2.03;;;;;;;;;;5005838;28;20046;-85
2024/01/18 03:57:07;;;;;;;3.30;2.30;;;;;;;;;;4991302;28;20058;-84
2024/01/18 03:59:33;;;;;;;3.50;2.30;;;;;;;;;;5008969;28;20034;-85
2024/01/18 04:01:58;;;;;;;4.63;2.70;;;;;;;;;;5012131;28;20041;-84
2024/01/18 04:04:24;;;;;;;2.78;1.92;;;;;;;;;;4999109;28;20057;-85
2024/01/18 04:06:49;;;;;;;5.53;2.42;;;;;;;;;;5013660;28;20121;-85
2024/01/18 04:09:15;;;;;;;2.60;1.75;;;;;;;;;;5006291;28;20476;-84
2024/01/18 04:11:41;;;;;;;4.20;2.17;;;;;;;;;;4992948;28;20042;-84
2024/01/18 04:14:07;;;;;;;2.83;1.70;;;;;;;;;;4990910;28;20045;-84
2024/01/18 04:16:34;;;;;;;2.33;1.73;;;;;;;;;;5006940;28;20146;-85
2024/01/18 04:19:00;;;;;;;2.47;1.45;;;;;;;;;;5008420;28;20030;-85
2024/01/18 04:21:25;;;;;;;2.58;1.90;;;;;;;;;;4989168;28;20034;-85
2024/01/18 04:23:51;;;;;;;2.80;1.30;;;;;;;;;;5009652;28;20046;-85
2024/01/18 04:26:17;;;;;;;1.90;1.25;;;;;;;;;;5012494;28;20038;-85
2024/01/18 04:28:42;;;;;;;1.70;1.20;;;;;;;;;;4996756;28;20049;-85
2024/01/18 04:31:08;;;;;;;2.20;1.58;;;;;;;;;;5010250;28;20092;-86
2024/01/18 04:33:33;;;;;;;4.28;2.47;;;;;;;;;;4990334;28;20034;-84
2024/01/18 04:35:59;;;;;;;5.05;2.75;;;;;;;;;;5008071;28;20475;-86
2024/01/18 04:38:24;;;;;;;2.70;1.88;;;;;;;;;;4973512;28;20038;-86
2024/01/18 04:40:50;;;;;;;3.30;2.10;;;;;;;;;;4992366;28;20030;-86
2024/01/18 04:43:16;;;;;;;4.03;2.00;;;;;;;;;;5007035;28;20038;-85
2024/01/18 04:45:42;;;;;;;3.40;2.22;;;;;;;;;;5008804;28;20052;-85
2024/01/18 04:48:07;;;;;;;4.05;2.00;;;;;;;;;;5010021;28;20461;-85
2024/01/18 04:50:33;;;;;;;2.30;1.73;;;;;;;;;;5011794;28;20603;-84
2024/01/18 04:53:00;;;;;;;3.53;2.15;;;;;;;;;;5009576;28;20041;-84
2024/01/18 04:55:26;;;;;;;2.55;1.58;;;;;;;;;;4989149;28;20066;-83
2024/01/18 04:57:52;;;;;;;2.17;1.60;;;;;;;;;;5012006;28;20061;-84
2024/01/18 05:00:17;;;;;;;2.13;1.20;;;;;;;;;;5008434;28;20037;-84
2024/01/18 05:02:44;;;;;;;1.40;1.13;;;;;;;;;;5006066;28;20508;-84
2024/01/18 05:05:10;;;;;;;1.52;1.25;;;;;;;;;;5006996;28;20507;-84
2024/01/18 05:07:42;;;;;;;2.60;1.20;;;;;;;;;;5008460;28;20033;-84
2024/01/18 05:10:09;;;;;;;3.03;1.20;;;;;;;;;;5010407;28;20070;-84
2024/01/18 05:12:35;;;;;;;2.40;1.50;;;;;;;;;;4991915;28;20410;-86
2024/01/18 05:15:01;;;;;;;2.90;1.40;;;;;;;;;;5005822;28;20544;-84
2024/01/18 05:17:37;;;;;;;4.00;1.80;;;;;;;;;;5006804;28;20451;-85
2024/01/18 05:20:06;;;;;;;3.20;2.22;;;;;;;;;;5009141;28;20557;-84
2024/01/18 05:22:32;;;;;;;3.20;2.40;;;;;;;;;;5009814;28;20034;-84
2024/01/18 05:24:59;;;;;;;6.25;3.20;;;;;;;;;;4994024;28;20049;-84
2024/01/18 05:27:29;;;;;;;3.03;2.10;;;;;;;;;;5008704;28;20042;-84
2024/01/18 05:29:58;;;;;;;4.18;1.67;;;;;;;;;;5012460;28;20403;-85
2024/01/18 05:32:24;;;;;;;3.30;1.80;;;;;;;;;;5016968;28;20487;-87
2024/01/18 05:34:50;;;;;;;2.35;1.70;;;;;;;;;;4996905;28;20072;-85
2024/01/18 05:37:16;;;;;;;2.92;1.60;;;;;;;;;;5011150;28;20145;-84
2024/01/18 05:39:41;;;;;;;2.40;1.50;;;;;;;;;;4996263;28;20084;-85
2024/01/18 05:42:07;;;;;;;3.13;1.70;;;;;;;;;;5013850;28;20069;-85
2024/01/18 05:44:33;;;;;;;2.83;1.70;;;;;;;;;;5014408;28;20057;-84
2024/01/18 05:46:59;;;;;;;2.40;1.48;;;;;;;;;;5013158;28;20034;-85
2024/01/18 05:49:25;;;;;;;2.92;1.60;;;;;;;;;;5013514;28;20037;-85
2024/01/18 05:51:50;;;;;;;2.63;1.60;;;;;;;;;;5016233;28;20037;-84
2024/01/18 05:54:16;;;;;;;2.50;1.80;;;;;;;;;;4992996;28;20609;-87
2024/01/18 05:56:42;;;;;;;3.22;2.28;;;;;;;;;;5010448;28;20113;-86
2024/01/18 05:59:07;;;;;;;3.38;2.03;;;;;;;;;;5001459;28;20121;-85
2024/01/18 06:01:33;;;;;;;3.53;1.95;;;;;;;;;;4995884;28;20097;-84
2024/01/18 06:03:58;;;;;;;2.55;1.60;;;;;;;;;;5019031;22;20064;-84
2024/01/18 06:06:24;;;;;;;2.20;1.60;;;;;;;;;;5031425;28;20044;-84
2024/01/18 06:08:49;;;;;;;3.25;1.60;;;;;;;;;;5030710;28;20041;-85
2024/01/18 06:11:17;;;;;;;6.38;2.60;;;;;;;;;;5031349;28;20037;-87
2024/01/18 06:13:42;;;;;;;4.40;2.58;;;;;;;;;;5032239;28;20053;-88
2024/01/18 06:16:10;;;;;;;3.00;1.90;;;;;;;;;;5028844;28;20034;-87
2024/01/18 06:18:37;;;;;;;5.00;2.60;;;;;;;;;;5011575;28;20033;-87
2024/01/18 06:21:04;;;;;;;3.45;2.10;;;;;;;;;;5029621;28;20042;-86
2024/01/18 06:23:29;;;;;;;4.15;2.10;;;;;;;;;;5030397;28;20041;-86
2024/01/18 06:25:55;;;;;;;3.83;2.30;;;;;;;;;;5037669;28;20131;-87
2024/01/18 06:28:21;;;;;;;3.45;2.00;;;;;;;;;;5026023;28;20060;-86
2024/01/18 06:30:46;;;;;;;4.20;2.67;;;;;;;;;;5028999;28;20053;-86
2024/01/18 06:33:12;;;;;;;2.58;1.95;;;;;;;;;;5029268;28;20029;-86
2024/01/18 06:35:38;;;;;;;3.20;1.88;;;;;;;;;;5029809;28;20042;-87
2024/01/18 06:38:03;;;;;;;1.88;1.40;;;;;;;;;;5029830;28;20038;-87
2024/01/18 06:40:29;;;;;;;2.78;1.80;;;;;;;;;;5028601;28;20093;-86
2024/01/18 06:42:54;;;;;;;2.90;2.05;;;;;;;;;;5028754;28;20030;-87
2024/01/18 06:45:20;;;;;;;5.07;1.90;;;;;;;;;;5011683;28;20057;-85
2024/01/18 06:47:45;;;;;;;4.00;2.10;;;;;;;;;;5028336;28;20032;-85
2024/01/18 06:50:13;;;;;;;3.92;2.20;;;;;;;;;;5030090;28;20102;-85
2024/01/18 06:52:39;;;;;;;7.30;2.22;;;;;;;;;;5026940;28;20030;-86
2024/01/18 06:55:06;;;;;;;3.00;2.00;;;;;;;;;;5027831;28;20081;-86
2024/01/18 06:57:31;;;;;;;1.92;1.50;;;;;;;;;;5030285;28;20553;-86
2024/01/18 06:59:57;;;;;;;1.90;1.30;;;;;;;;;;5025829;28;20037;-86
2024/01/18 07:02:22;;;;;;;3.03;1.65;;;;;;;;;;5031649;28;20404;-86
2024/01/18 07:04:48;;;;;;;3.88;1.70;;;;;;;;;;5029777;28;20117;-87
2024/01/18 07:07:13;;;;;;;2.72;1.60;;;;;;;;;;5029601;28;20093;-87
2024/01/18 07:09:38;;;;;;;2.60;1.48;;;;;;;;;;5022426;28;20030;-86
2024/01/18 07:12:04;;;;;;;2.80;1.70;;;;;;;;;;5018581;28;20509;-86
2024/01/18 07:14:30;;;;;;;2.83;1.35;;;;;;;;;;5010938;28;20042;-87
2024/01/18 07:16:56;;;;;;;2.60;1.70;;;;;;;;;;5029839;28;20029;-86
2024/01/18 07:19:21;;;;;;;2.78;1.88;;;;;;;;;;5039588;28;20136;-86
2024/01/18 07:21:47;;;;;;;3.80;2.10;;;;;;;;;;5019690;28;20076;-86
2024/01/18 07:24:12;;;;;;;4.53;2.67;;;;;;;;;;5037239;28;20086;-86
2024/01/18 07:26:39;;;;;;;3.65;2.40;;;;;;;;;;5036777;28;20727;-86
2024/01/18 07:29:04;;;;;;;3.10;1.90;;;;;;;;;;5034002;28;20122;-87
2024/01/18 07:31:30;;;;;;;3.03;1.70;;;;;;;;;;5035456;28;20065;-87
2024/01/18 07:33:55;;;;;;;2.78;1.70;;;;;;;;;;5028604;28;20030;-86
2024/01/18 07:36:21;;;;;;;2.92;1.77;;;;;;;;;;5029597;28;20558;-86
2024/01/18 07:38:46;;;;;;;2.20;1.45;;;;;;;;;;5028311;28;20029;-86
2024/01/18 07:41:12;;;;;;;2.28;1.50;;;;;;;;;;5010103;28;20021;-86
2024/01/18 07:43:39;;;;;;;3.40;1.73;;;;;;;;;;5027906;28;20076;-87
2024/01/18 07:46:05;;;;;;;2.08;1.38;;;;;;;;;;5029875;28;20037;-87
2024/01/18 07:48:30;;;;;;;4.28;1.52;;;;;;;;;;5011228;28;20089;-85
2024/01/18 07:50:56;;;;;;;3.17;1.60;;;;;;;;;;5027429;28;20048;-87
2024/01/18 07:53:23;;;;;;;3.50;2.20;;;;;;;;;;5006044;28;20045;-86
2024/01/18 07:55:49;;;;;;;2.90;1.88;;;;;;;;;;5005146;28;20067;-86
2024/01/18 07:58:14;;;;;;;3.10;2.10;;;;;;;;;;5012206;28;20056;-87
2024/01/18 08:00:40;;;;;;;3.20;2.20;;;;;;;;;;5031012;28;20068;-86
2024/01/18 08:03:06;;;;;;;2.85;1.98;;;;;;;;;;5030821;28;20041;-87
2024/01/18 08:05:31;;;;;;;2.85;1.85;;;;;;;;;;5013028;28;20057;-87
2024/01/18 08:07:57;;;;;;;2.55;1.70;;;;;;;;;;5028564;28;20518;-87
2024/01/18 08:10:23;;;;;;;3.13;1.98;;;;;;;;;;5035002;28;20038;-85
2024/01/18 08:12:49;;;;;;;2.58;1.77;;;;;;;;;;5036388;28;20113;-86
2024/01/18 08:15:14;;;;;;;3.42;2.03;;;;;;;;;;5034707;28;20061;-86
2024/01/18 08:17:42;;;;;;;3.75;2.10;;;;;;;;;;5034488;28;20045;-86
2024/01/18 08:20:12;;;;;;;2.70;1.85;;;;;;;;;;5032304;28;20037;-87
2024/01/18 08:22:44;;;;;;;3.08;2.00;;;;;;;;;;5033442;28;20042;-86
2024/01/18 08:25:10;;;;;;;2.67;1.65;;;;;;;;;;5033051;28;20038;-87
2024/01/18 08:27:40;;;;;;;3.70;2.05;;;;;;;;;;5032711;28;20411;-87
2024/01/18 08:30:06;;;;;;;3.45;2.20;;;;;;;;;;5025943;28;20049;-88
2024/01/18 08:32:34;;;;;;;2.88;1.92;;;;;;;;;;5029638;28;20030;-89
2024/01/18 08:35:06;;;;;;;3.25;1.77;;;;;;;;;;5029230;28;20161;-87
2024/01/18 08:37:35;;;;;;;2.17;1.50;;;;;;;;;;5024335;28;20037;-86
2024/01/18 08:40:02;;;;;;;2.25;1.50;;;;;;;;;;5006142;28;20033;-87
2024/01/18 08:42:27;;;;;;;2.58;1.45;;;;;;;;;;5025572;28;20034;-86
2024/01/18 08:44:53;;;;;;;2.30;1.33;;;;;;;;;;5022447;28;20053;-87
2024/01/18 08:47:18;;;;;;;2.67;1.50;;;;;;;;;;5024853;28;20037;-87
2024/01/18 08:49:44;;;;;;;2.17;1.33;;;;;;;;;;5026756;28;20399;-87
2024/01/18 08:52:09;;;;;;;2.33;1.50;;;;;;;;;;5028224;28;20041;-87
2024/01/18 08:54:36;;;;;;;2.55;1.60;;;;;;;;;;5017393;28;20030;-86
2024/01/18 08:57:02;;;;;;;3.25;2.05;;;;;;;;;;5022326;28;20065;-87
2024/01/18 08:59:27;;;;;;;3.28;1.80;;;;;;;;;;5024802;28;20042;-87
2024/01/18 09:01:53;;;;;;;2.75;1.65;;;;;;;;;;5029146;28;20041;-87
2024/01/18 09:04:18;;;;;;;3.03;1.60;;;;;;;;;;5023973;28;20057;-87
2024/01/18 09:06:44;;;;;;;3.10;1.60;;;;;;;;;;5025375;28;20033;-87
2024/01/18 09:09:09;;;;;;;3.05;1.88;;;;;;;;;;5006040;28;20148;-87
2024/01/18 09:11:35;;;;;;;3.75;2.10;;;;;;;;;;5008161;28;20133;-86
2024/01/18 09:14:01;;;;;;;3.95;2.00;;;;;;;;;;5012957;28;20042;-87
2024/01/18 09:16:27;;;;;;;3.47;1.80;;;;;;;;;;5005029;28;20041;-87
2024/01/18 09:18:53;;;;;;;2.08;1.50;;;;;;;;;;5001241;28;20037;-87
2024/01/18 09:21:18;;;;;;;2.55;1.55;;;;;;;;;;4993157;28;20602;-87
2024/01/18 09:23:44;;;;;;;2.05;1.55;;;;;;;;;;4995039;28;20030;-87
2024/01/18 09:26:10;;;;;;;2.70;1.70;;;;;;;;;;5011950;28;20419;-87
2024/01/18 09:28:35;;;;;;;2.30;1.52;;;;;;;;;;5027172;28;20044;-88
2024/01/18 09:31:01;;;;;;;2.17;1.48;;;;;;;;;;5025739;28;20029;-88
2024/01/18 09:33:26;;;;;;;3.20;1.67;;;;;;;;;;5023384;28;20815;-87
2024/01/18 09:35:52;;;;;;;2.95;1.90;;;;;;;;;;5025195;28;20034;-86
2024/01/18 09:38:19;;;;;;;4.15;2.30;;;;;;;;;;5006321;28;20499;-87
2024/01/18 09:40:45;;;;;;;3.58;2.00;;;;;;;;;;5024547;28;20029;-87
2024/01/18 09:43:14;;;;;;;4.95;1.80;;;;;;;;;;5024923;28;20061;-87
2024/01/18 09:45:45;;;;;;;3.10;1.90;;;;;;;;;;5022613;28;20092;-87
2024/01/18 09:48:12;;;;;;;2.75;1.80;;;;;;;;;;5022337;28;20061;-88
2024/01/18 09:50:46;;;;;;;2.50;1.60;;;;;;;;;;5006392;28;20175;-86
2024/01/18 09:53:12;;;;;;;2.75;1.75;;;;;;;;;;5022402;28;20042;-85
2024/01/18 09:55:37;;;;;;;3.63;1.80;;;;;;;;;;5030214;28;20044;-87
2024/01/18 09:58:10;;;;;;;2.40;1.73;;;;;;;;;;5026229;28;20033;-86
2024/01/18 10:00:43;;;;;;;2.60;1.83;;;;;;;;;;5024809;28;20038;-86
2024/01/18 10:03:09;;;;;;;3.55;2.10;;;;;;;;;;5028332;28;20041;-86
2024/01/18 10:05:34;;;;;;;2.80;1.83;;;;;;;;;;5011781;28;20048;-86
2024/01/18 10:08:00;;;;;;;2.90;1.67;;;;;;;;;;5011492;28;20034;-86
2024/01/18 10:10:25;;;;;;;3.65;1.60;;;;;;;;;;5026770;28;20048;-86
2024/01/18 10:12:51;;;;;;;2.50;1.67;;;;;;;;;;5023118;28;20400;-86
2024/01/18 10:15:33;;;;;;;2.38;1.55;;;;;;;;;;5014095;28;20085;-86
2024/01/18 10:18:03;;;;;;;2.30;1.50;;;;;;;;;;5033383;28;20120;-86
2024/01/18 10:20:29;;;;;;;3.10;1.40;;;;;;;;;;5030325;28;20052;-86
2024/01/18 10:22:57;;;;;;;2.88;1.60;;;;;;;;;;5015156;28;20041;-86
2024/01/18 10:25:25;;;;;;;2.40;1.42;;;;;;;;;;5029860;28;20121;-86
2024/01/18 10:27:52;;;;;;;2.17;1.50;;;;;;;;;;5027933;28;20041;-86
2024/01/18 10:30:18;;;;;;;2.00;1.40;;;;;;;;;;5024096;28;20061;-86
2024/01/18 10:32:45;;;;;;;1.70;1.30;;;;;;;;;;5013766;28;20530;-86
2024/01/18 10:35:28;;;;;;;2.60;1.55;;;;;;;;;;5029958;28;20034;-86
2024/01/18 10:38:05;;;;;;;1.95;1.27;;;;;;;;;;5028699;28;20034;-86
2024/01/18 10:40:36;;;;;;;2.50;1.42;;;;;;;;;;5028270;28;20117;-87
2024/01/18 10:43:03;;;;;;;2.78;1.70;;;;;;;;;;5010774;28;20037;-87
2024/01/18 10:45:30;;;;;;;2.53;1.45;;;;;;;;;;5030525;28;20041;-87
2024/01/18 10:47:56;;;;;;;2.80;1.67;;;;;;;;;;5023347;28;20029;-86
2024/01/18 10:50:23;;;;;;;3.05;1.27;;;;;;;;;;5010997;28;20101;-86
2024/01/18 10:52:49;;;;;;;2.20;1.48;;;;;;;;;;5029055;28;20047;-86
2024/01/18 10:55:14;;;;;;;2.70;1.63;;;;;;;;;;5027159;28;20038;-86
2024/01/18 10:57:40;;;;;;;6.75;3.15;;;;;;;;;;5030324;28;20120;-86
2024/01/18 11:00:06;;;;;;;2.83;1.60;;;;;;;;;;5028529;28;20036;-87
2024/01/18 11:02:40;;;;;;;2.75;1.85;;;;;;;;;;5027835;28;20068;-87
2024/01/18 11:05:09;;;;;;;1.83;1.30;;;;;;;;;;5024128;28;20057;-86
2024/01/18 11:07:37;;;;;;;2.05;1.30;;;;;;;;;;5020264;28;20121;-86
2024/01/18 11:10:06;;;;;;;2.17;1.50;;;;;;;;;;5013730;28;20037;-85
2024/01/18 11:12:32;;;;;;;3.53;1.85;;;;;;;;;;5023456;28;20033;-86
2024/01/18 11:14:58;;;;;;;3.65;2.22;;;;;;;;;;5024438;28;20431;-86
2024/01/18 11:17:24;;;;;;;2.97;2.00;;;;;;;;;;5028225;28;20044;-86
2024/01/18 11:19:49;;;;;;;2.90;1.90;;;;;;;;;;5027879;28;20041;-85
2024/01/18 11:22:23;;;;;;;4.15;1.92;;;;;;;;;;5003475;28;20044;-87
2024/01/18 11:24:49;;;;;;;2.90;1.55;;;;;;;;;;5013781;28;20037;-86
2024/01/18 11:27:22;;;;;;;1.85;1.50;;;;;;;;;;5001975;28;20037;-86
2024/01/18 11:29:49;;;;;;;2.97;1.90;;;;;;;;;;5011816;28;20149;-86
2024/01/18 11:32:17;;;;;;;2.72;1.80;;;;;;;;;;5021679;28;20476;-86
2024/01/18 11:34:44;;;;;;;3.05;1.63;;;;;;;;;;5022361;28;20038;-86
2024/01/18 11:37:14;;;;;;;5.75;2.20;;;;;;;;;;5029593;28;20590;-86
2024/01/18 11:39:59;;;;;;;3.47;2.00;;;;;;;;;;5031379;28;20087;-87
2024/01/18 11:42:26;;;;;;;4.70;2.10;;;;;;;;;;5027270;28;20044;-86
2024/01/18 11:45:11;;;;;;;4.20;2.65;;;;;;;;;;5032384;28;20045;-87
2024/01/18 11:47:39;;;;;;;4.53;2.95;;;;;;;;;;5036134;28;20037;-87
2024/01/18 11:50:11;;;;;;;3.78;2.28;;;;;;;;;;5033283;28;20065;-87
2024/01/18 11:52:41;;;;;;;3.38;2.20;;;;;;;;;;5024239;28;20041;-87
2024/01/18 11:55:08;;;;;;;3.63;2.33;;;;;;;;;;5036960;28;20045;-87
2024/01/18 11:57:34;;;;;;;3.38;1.83;;;;;;;;;;5028781;28;20104;-87
2024/01/18 12:00:00;;;;;;;2.13;1.52;;;;;;;;;;5038602;28;20483;-87
2024/01/18 12:02:29;;;;;;;2.30;1.63;;;;;;;;;;5035643;28;20073;-88
2024/01/18 12:04:55;;;;;;;2.55;1.45;;;;;;;;;;5030367;28;20029;-86
2024/01/18 12:07:21;;;;;;;1.98;1.40;;;;;;;;;;5029867;28;20037;-85
2024/01/18 12:09:47;;;;;;;2.47;1.23;;;;;;;;;;5030009;28;20495;-85
2024/01/18 12:12:13;;;;;;;3.45;1.67;;;;;;;;;;5016561;28;20049;-86
2024/01/18 12:14:41;;;;;;;2.60;1.52;;;;;;;;;;5026804;28;20033;-87
2024/01/18 12:17:11;;;;;;;3.00;1.60;;;;;;;;;;5028979;28;20033;-86
2024/01/18 12:19:42;;;;;;;3.00;1.65;;;;;;;;;;5006413;28;20046;-86
2024/01/18 12:22:09;;;;;;;2.70;1.45;;;;;;;;;;5027158;28;20053;-86
2024/01/18 12:24:36;;;;;;;1.98;1.48;;;;;;;;;;5024025;28;20423;-87
2024/01/18 12:27:04;;;;;;;1.52;1.15;;;;;;;;;;5027016;28;20040;-86
2024/01/18 12:29:31;;;;;;;2.25;1.40;;;;;;;;;;5025497;28;20065;-86
2024/01/18 12:31:56;;;;;;;2.35;1.40;;;;;;;;;;5003588;28;20057;-86
2024/01/18 12:34:23;;;;;;;2.75;1.60;;;;;;;;;;5021941;28;20141;-86
2024/01/18 12:36:49;;;;;;;3.08;1.60;;;;;;;;;;5004874;28;20034;-86
2024/01/18 12:39:17;;;;;;;3.08;1.60;;;;;;;;;;5026203;28;20040;-86
2024/01/18 12:41:44;;;;;;;3.05;2.00;;;;;;;;;;5025665;28;20033;-86
2024/01/18 12:44:11;;;;;;;2.95;1.42;;;;;;;;;;5029068;28;20046;-86
2024/01/18 12:46:39;;;;;;;2.13;1.50;;;;;;;;;;5021967;28;20053;-87
2024/01/18 12:49:06;;;;;;;2.20;1.42;;;;;;;;;;5011783;28;20645;-87
2024/01/18 12:51:35;;;;;;;2.20;1.30;;;;;;;;;;5010477;28;20070;-87
2024/01/18 12:54:01;;;;;;;1.58;1.02;;;;;;;;;;5030786;28;20121;-86
2024/01/18 12:56:27;;;;;;;2.17;1.00;;;;;;;;;;5035388;28;20068;-86
2024/01/18 12:58:53;;;;;;;2.03;1.20;;;;;;;;;;5031095;28;20076;-86
2024/01/18 13:01:30;;;;;;;2.22;1.30;;;;;;;;;;5030142;28;20096;-86
2024/01/18 13:04:17;;;;;;;9.75;3.58;;;;;;;;;;5030382;28;20523;-86
2024/01/18 13:06:45;;;;;;;17.48;5.40;;;;;;;;;;5028669;28;20531;-88
2024/01/18 13:09:15;;;;;;;6.28;3.33;;;;;;;;;;5027524;28;20033;-85
2024/01/18 13:11:42;;;;;;;4.40;2.13;;;;;;;;;;4997488;28;20052;-86
2024/01/18 13:14:09;;;;;;;2.70;1.25;;;;;;;;;;5030253;28;20029;-87
2024/01/18 13:16:35;;;;;;;2.40;1.50;;;;;;;;;;5026625;28;20040;-86
2024/01/18 13:19:02;;;;;;;1.92;1.30;;;;;;;;;;5003225;28;20247;-86
2024/01/18 13:21:29;;;;;;;1.52;1.23;;;;;;;;;;5007606;28;20113;-86
2024/01/18 13:23:55;;;;;;;1.50;1.10;;;;;;;;;;5008849;28;20099;-87
2024/01/18 13:26:21;;;;;;;1.90;1.30;;;;;;;;;;5022307;28;20030;-86
2024/01/18 13:28:46;;;;;;;2.30;1.60;;;;;;;;;;5019813;28;20044;-86
2024/01/18 13:31:12;;;;;;;2.33;1.55;;;;;;;;;;5005562;28;20038;-86
2024/01/18 13:33:38;;;;;;;2.17;1.40;;;;;;;;;;5025508;28;20239;-86
2024/01/18 13:36:05;;;;;;;1.50;1.08;;;;;;;;;;5009098;28;20033;-87
2024/01/18 13:38:30;;;;;;;1.20;1.00;;;;;;;;;;5028960;28;20060;-87
2024/01/18 13:40:56;;;;;;;3.42;1.40;;;;;;;;;;5026522;28;21282;-86
2024/01/18 13:43:21;;;;;;;3.00;1.50;;;;;;;;;;5009552;28;20116;-87
2024/01/18 13:45:47;;;;;;;2.20;1.33;;;;;;;;;;5007537;28;20108;-88
2024/01/18 13:48:13;;;;;;;3.35;1.92;;;;;;;;;;5000281;28;20033;-86
2024/01/18 13:50:39;;;;;;;2.80;1.80;;;;;;;;;;5026985;28;20524;-87
2024/01/18 13:53:04;;;;;;;1.85;1.30;;;;;;;;;;5022922;28;20041;-87
2024/01/18 13:55:30;;;;;;;2.45;1.40;;;;;;;;;;5024225;28;20037;-87
2024/01/18 13:57:56;;;;;;;1.50;1.00;;;;;;;;;;5024553;28;20077;-86
2024/01/18 14:00:22;;;;;;;2.17;1.40;;;;;;;;;;5023942;28;20025;-86
2024/01/18 14:02:47;;;;;;;2.78;1.58;;;;;;;;;;5023465;28;20467;-87
2024/01/18 14:05:13;;;;;;;1.48;1.10;;;;;;;;;;5025950;28;20044;-86
2024/01/18 14:07:38;;;;;;;1.45;0.90;;;;;;;;;;5024033;28;20069;-87
2024/01/18 14:10:04;;;;;;;2.05;1.30;;;;;;;;;;5024155;28;20093;-87
2024/01/18 14:12:30;;;;;;;2.45;1.50;;;;;;;;;;5024535;28;20046;-87
2024/01/18 14:14:55;;;;;;;3.22;1.80;;;;;;;;;;5022137;28;20443;-86
2024/01/18 14:17:21;;;;;;;3.65;1.90;;;;;;;;;;5022053;28;20403;-87
2024/01/18 14:19:46;;;;;;;3.50;1.85;;;;;;;;;;5025763;28;20034;-87
2024/01/18 14:22:12;;;;;;;2.80;1.80;;;;;;;;;;5027667;28;20413;-86
2024/01/18 14:24:38;;;;;;;2.92;1.80;;;;;;;;;;5024356;28;20092;-86
2024/01/18 14:27:03;;;;;;;2.38;1.40;;;;;;;;;;5008555;28;20475;-87
2024/01/18 14:29:29;;;;;;;2.45;1.52;;;;;;;;;;5009039;28;20045;-87
2024/01/18 14:31:54;;;;;;;3.78;1.98;;;;;;;;;;5027413;28;20454;-87
2024/01/18 14:34:20;;;;;;;3.78;1.73;;;;;;;;;;5025186;28;20158;-87
2024/01/18 14:36:46;;;;;;;3.85;1.95;;;;;;;;;;5024474;28;20448;-87
2024/01/18 14:39:15;;;;;;;7.40;4.45;;;;;;;;;;5024206;28;20124;-87